createdAt,value
2022-11-16T00:01:12.168Z,10.93
2022-11-16T00:03:40.467Z,10.95
2022-11-16T00:06:09.241Z,10.93
2022-11-16T00:08:38.696Z,10.96
2022-11-16T00:11:09.618Z,10.97
2022-11-16T00:13:38.358Z,11.07
2022-11-16T00:16:07.002Z,11.02
2022-11-16T00:18:35.525Z,10.99
2022-11-16T00:21:05.746Z,10.96
2022-11-16T00:23:36.237Z,11.02
2022-11-16T00:26:06.063Z,11.04
2022-11-16T00:28:36.132Z,11.02
2022-11-16T00:31:07.203Z,11.02
2022-11-16T00:33:35.565Z,11.00
2022-11-16T00:36:04.063Z,11.19
2022-11-16T00:38:32.617Z,11.06
2022-11-16T00:41:01.402Z,11.15
2022-11-16T00:43:29.677Z,11.18
2022-11-16T00:45:59.332Z,11.05
2022-11-16T00:48:27.931Z,11.09
2022-11-16T00:50:56.195Z,11.09
2022-11-16T00:53:24.477Z,11.06
2022-11-16T00:55:53.045Z,11.04
2022-11-16T00:58:21.305Z,10.94
2022-11-16T01:00:49.663Z,11.05
2022-11-16T01:03:19.320Z,11.00
2022-11-16T01:05:47.591Z,11.04
2022-11-16T01:08:15.863Z,11.10
2022-11-16T01:10:44.165Z,11.05
2022-11-16T01:13:11.565Z,11.03
2022-11-16T01:15:39.812Z,11.12
2022-11-16T01:18:08.094Z,11.10
2022-11-16T01:20:37.769Z,10.97
2022-11-16T01:23:06.041Z,11.10
2022-11-16T01:25:34.613Z,11.09
2022-11-16T01:28:02.874Z,11.21
2022-11-16T01:30:32.657Z,11.03
2022-11-16T01:33:01.204Z,11.02
2022-11-16T01:35:29.502Z,11.22
2022-11-16T01:37:59.165Z,11.24
2022-11-16T01:40:28.736Z,11.16
2022-11-16T01:42:57.014Z,11.09
2022-11-16T01:45:36.937Z,11.08
2022-11-16T01:48:05.454Z,11.12
2022-11-16T01:50:34.159Z,11.03
2022-11-16T01:53:05.649Z,11.24
2022-11-16T01:55:34.720Z,10.98
2022-11-16T01:58:03.039Z,11.06
2022-11-16T02:00:31.309Z,10.99
2022-11-16T02:02:59.864Z,11.04
2022-11-16T02:05:31.678Z,11.01
2022-11-16T02:08:25.742Z,11.04
2022-11-16T02:11:04.208Z,11.00
2022-11-16T02:13:39.093Z,11.13
2022-11-16T02:16:13.702Z,11.00
2022-11-16T02:18:45.968Z,11.08
2022-11-16T02:21:21.829Z,10.98
2022-11-16T02:24:16.285Z,11.24
2022-11-16T02:26:57.521Z,11.12
2022-11-16T02:29:29.800Z,11.05
2022-11-16T02:32:01.893Z,10.95
2022-11-16T02:34:32.828Z,10.99
2022-11-16T02:37:01.121Z,11.02
2022-11-16T02:39:29.710Z,11.08
2022-11-16T02:41:57.991Z,11.02
2022-11-16T02:44:29.329Z,11.05
2022-11-16T02:46:59.119Z,11.00
2022-11-16T02:49:27.783Z,10.99
2022-11-16T02:51:56.074Z,11.02
2022-11-16T02:54:25.150Z,11.01
2022-11-16T02:56:55.735Z,11.21
2022-11-16T02:59:24.413Z,11.31
2022-11-16T03:01:56.199Z,11.24
2022-11-16T03:04:26.276Z,11.21
2022-11-16T03:06:54.886Z,11.36
2022-11-16T03:09:24.673Z,11.30
2022-11-16T03:12:00.175Z,11.19
2022-11-16T03:14:30.982Z,11.22
2022-11-16T03:17:00.686Z,11.09
2022-11-16T03:19:36.671Z,11.06
2022-11-16T03:22:07.946Z,11.18
2022-11-16T03:24:36.198Z,11.31
2022-11-16T03:27:07.423Z,11.41
2022-11-16T03:29:37.894Z,11.15
2022-11-16T03:32:11.873Z,11.29
2022-11-16T03:34:40.122Z,11.21
2022-11-16T03:37:08.689Z,11.04
2022-11-16T03:39:39.045Z,11.22
2022-11-16T03:42:08.761Z,11.26
2022-11-16T03:44:37.348Z,11.12
2022-11-16T03:47:05.708Z,11.14
2022-11-16T03:49:35.416Z,11.24
2022-11-16T03:52:04.000Z,11.06
2022-11-16T03:54:32.277Z,11.13
2022-11-16T03:57:00.524Z,10.99
2022-11-16T03:59:28.800Z,10.99
2022-11-16T04:01:57.359Z,10.90
2022-11-16T04:04:39.412Z,10.91
2022-11-16T04:07:23.791Z,10.93
2022-11-16T04:10:05.845Z,10.88
2022-11-16T04:12:48.203Z,11.14
2022-11-16T04:15:30.246Z,11.23
2022-11-16T04:18:12.581Z,10.98
2022-11-16T04:20:54.604Z,11.12
2022-11-16T04:23:38.332Z,10.92
2022-11-16T04:26:45.661Z,10.95
2022-11-16T04:29:13.933Z,10.76
2022-11-16T04:31:56.277Z,10.78
2022-11-16T04:34:38.381Z,10.81
2022-11-16T04:37:20.765Z,10.77
2022-11-16T04:39:52.698Z,10.75
2022-11-16T04:42:22.528Z,10.75
2022-11-16T04:45:04.860Z,10.81
2022-11-16T04:47:33.136Z,10.74
2022-11-16T04:50:01.404Z,10.80
2022-11-16T04:52:29.957Z,10.86
2022-11-16T04:54:59.621Z,10.67
2022-11-16T04:57:27.866Z,10.66
2022-11-16T04:59:56.405Z,10.59
2022-11-16T05:02:24.677Z,10.59
2022-11-16T05:04:52.974Z,10.67
2022-11-16T05:07:21.353Z,10.59
2022-11-16T05:09:50.120Z,10.55
2022-11-16T05:12:21.134Z,10.80
2022-11-16T05:14:49.393Z,10.61
2022-11-16T05:17:17.694Z,10.58
2022-11-16T05:20:00.113Z,10.58
2022-11-16T05:22:28.419Z,10.74
2022-11-16T05:24:56.767Z,10.64
2022-11-16T05:27:28.673Z,10.58
2022-11-16T05:29:58.571Z,10.50
2022-11-16T05:32:27.506Z,10.48
2022-11-16T05:35:08.691Z,10.47
2022-11-16T05:37:37.041Z,10.41
2022-11-16T05:40:14.288Z,10.49
2022-11-16T05:42:44.115Z,10.57
2022-11-16T05:45:21.153Z,10.45
2022-11-16T05:47:50.947Z,10.52
2022-11-16T05:50:21.586Z,10.62
2022-11-16T05:52:51.966Z,10.60
2022-11-16T05:55:20.635Z,10.54
2022-11-16T05:57:50.289Z,10.38
2022-11-16T06:00:19.194Z,10.43
2022-11-16T06:02:47.779Z,10.42
2022-11-16T06:05:16.165Z,10.50
2022-11-16T06:07:44.462Z,10.40
2022-11-16T06:10:12.798Z,10.42
2022-11-16T06:12:41.038Z,10.44
2022-11-16T06:15:11.033Z,10.69
2022-11-16T06:17:39.288Z,10.42
2022-11-16T06:20:08.385Z,10.53
2022-11-16T06:22:36.644Z,10.53
2022-11-16T06:25:05.253Z,10.45
2022-11-16T06:27:33.593Z,10.66
2022-11-16T06:30:02.223Z,10.78
2022-11-16T06:32:31.888Z,10.67
2022-11-16T06:35:00.157Z,10.73
2022-11-16T06:37:28.459Z,10.67
2022-11-16T06:39:57.015Z,10.78
2022-11-16T06:42:25.323Z,10.57
2022-11-16T06:44:53.605Z,10.46
2022-11-16T06:47:21.898Z,10.47
2022-11-16T06:49:51.563Z,10.50
2022-11-16T06:52:19.838Z,10.51
2022-11-16T06:54:48.130Z,10.50
2022-11-16T06:57:16.387Z,10.53
2022-11-16T06:59:44.665Z,10.56
2022-11-16T07:02:12.947Z,10.54
2022-11-16T07:04:41.283Z,10.58
2022-11-16T07:07:10.996Z,10.39
2022-11-16T07:09:39.590Z,10.27
2022-11-16T07:12:08.199Z,10.34
2022-11-16T07:14:36.493Z,10.23
2022-11-16T07:17:09.303Z,10.22
2022-11-16T07:19:38.287Z,10.15
2022-11-16T07:24:53.634Z,10.16
2022-11-16T07:27:22.005Z,10.12
2022-11-16T07:29:50.272Z,10.20
2022-11-16T07:32:18.561Z,10.07
2022-11-16T07:34:47.098Z,10.03
2022-11-16T07:37:15.393Z,9.98
2022-11-16T07:39:43.828Z,9.91
2022-11-16T07:42:13.554Z,9.89
2022-11-16T07:44:42.260Z,9.83
2022-11-16T07:47:10.576Z,9.91
2022-11-16T07:49:38.904Z,10.03
2022-11-16T07:52:09.253Z,10.07
2022-11-16T07:54:37.585Z,9.92
2022-11-16T07:57:05.892Z,10.07
2022-11-16T07:59:36.592Z,10.01
2022-11-16T08:02:04.964Z,10.00
2022-11-16T08:04:33.333Z,9.94
2022-11-16T08:07:01.659Z,9.94
2022-11-16T08:09:32.850Z,10.03
2022-11-16T08:12:01.587Z,10.14
2022-11-16T08:14:32.079Z,10.14
2022-11-16T08:17:04.982Z,10.22
2022-11-16T08:19:34.083Z,10.32
2022-11-16T08:22:02.409Z,10.09
2022-11-16T08:24:31.022Z,10.21
2022-11-16T08:26:59.680Z,10.14
2022-11-16T08:29:28.439Z,10.13
2022-11-16T08:31:57.015Z,10.01
2022-11-16T08:34:26.973Z,10.12
2022-11-16T08:36:55.261Z,10.02
2022-11-16T08:39:23.578Z,10.07
2022-11-16T08:41:52.333Z,10.12
2022-11-16T08:44:20.651Z,10.04
2022-11-16T08:46:48.927Z,9.90
2022-11-16T08:49:17.262Z,10.20
2022-11-16T08:51:46.973Z,10.08
2022-11-16T08:54:16.303Z,10.05
2022-11-16T08:56:44.802Z,9.96
2022-11-16T08:59:13.903Z,9.91
2022-11-16T09:01:42.384Z,10.06
2022-11-16T09:04:10.747Z,9.92
2022-11-16T09:06:39.059Z,10.12
2022-11-16T09:09:08.715Z,10.17
2022-11-16T09:11:37.042Z,10.10
2022-11-16T09:14:05.341Z,10.06
2022-11-16T09:16:34.269Z,9.93
2022-11-16T09:19:02.828Z,9.78
2022-11-16T09:21:31.534Z,9.77
2022-11-16T09:24:00.158Z,9.82
2022-11-16T09:26:30.235Z,9.85
2022-11-16T09:28:59.646Z,9.97
2022-11-16T09:31:28.483Z,9.95
2022-11-16T09:33:58.677Z,10.09
2022-11-16T09:36:27.432Z,9.77
2022-11-16T09:41:52.014Z,10.02
2022-11-16T09:44:31.216Z,10.47
2022-11-16T09:47:00.338Z,10.35
2022-11-16T09:49:31.486Z,10.31
2022-11-16T09:52:02.021Z,10.21
2022-11-16T09:54:34.423Z,10.43
2022-11-16T09:57:12.647Z,10.13
2022-11-16T09:59:42.721Z,10.08
2022-11-16T10:02:18.625Z,10.35
2022-11-16T10:04:55.034Z,10.30
2022-11-16T10:07:27.572Z,10.19
2022-11-16T10:09:56.480Z,10.37
2022-11-16T10:12:28.553Z,10.18
2022-11-16T10:15:08.575Z,10.71
2022-11-16T10:17:45.423Z,10.72
2022-11-16T10:20:30.250Z,10.24
2022-11-16T10:23:02.107Z,10.63
2022-11-16T10:25:32.204Z,10.55
2022-11-16T10:28:16.185Z,10.74
2022-11-16T10:30:48.044Z,10.68
2022-11-16T10:33:17.400Z,10.79
2022-11-16T10:35:47.098Z,10.52
2022-11-16T10:38:17.286Z,10.61
2022-11-16T10:40:46.420Z,10.85
2022-11-16T10:43:17.062Z,10.77
2022-11-16T10:45:47.092Z,10.70
2022-11-16T10:48:23.520Z,10.58
2022-11-16T10:50:52.343Z,10.81
2022-11-16T10:53:27.927Z,10.95
2022-11-16T10:56:14.592Z,10.92
2022-11-16T10:58:54.787Z,11.35
2022-11-16T11:01:32.231Z,11.18
2022-11-16T11:04:15.011Z,10.96
2022-11-16T11:06:51.919Z,11.01
2022-11-16T11:09:25.986Z,11.04
2022-11-16T11:12:14.325Z,11.26
2022-11-16T11:14:44.000Z,11.05
2022-11-16T11:17:14.392Z,11.06
2022-11-16T11:19:42.673Z,10.96
2022-11-16T11:22:11.759Z,11.25
2022-11-16T11:24:47.620Z,11.23
2022-11-16T11:27:15.972Z,11.17
2022-11-16T11:29:46.012Z,11.27
2022-11-16T11:32:20.777Z,11.19
2022-11-16T11:34:53.386Z,11.19
2022-11-16T11:37:23.470Z,11.06
2022-11-16T11:39:56.884Z,11.28
2022-11-16T11:42:25.202Z,11.20
2022-11-16T11:44:58.105Z,11.44
2022-11-16T11:50:21.291Z,11.36
2022-11-16T11:53:00.740Z,11.40
2022-11-16T11:55:30.130Z,11.47
2022-11-16T11:57:58.516Z,11.31
2022-11-16T12:00:28.747Z,11.21
2022-11-16T12:03:12.300Z,11.37
2022-11-16T12:05:56.054Z,11.50
2022-11-16T12:08:46.917Z,11.51
2022-11-16T12:11:18.123Z,11.53
2022-11-16T12:13:58.045Z,11.58
2022-11-16T12:16:30.301Z,11.51
2022-11-16T12:19:11.628Z,11.60
2022-11-16T12:21:45.531Z,11.52
2022-11-16T12:24:22.648Z,11.43
2022-11-16T12:26:56.074Z,11.74
2022-11-16T12:29:27.101Z,11.49
2022-11-16T12:32:06.438Z,11.65
2022-11-16T12:34:42.088Z,11.42
2022-11-16T12:37:13.459Z,11.48
2022-11-16T12:40:33.342Z,11.65
2022-11-16T12:43:04.070Z,11.89
2022-11-16T12:45:42.756Z,11.87
2022-11-16T12:51:05.130Z,12.25
2022-11-16T12:53:46.529Z,12.51
2022-11-16T12:56:19.254Z,12.44
2022-11-16T12:58:57.726Z,12.34
2022-11-16T13:01:28.572Z,12.45
2022-11-16T13:03:57.825Z,12.59
2022-11-16T13:06:29.847Z,12.34
2022-11-16T13:09:02.020Z,12.02
2022-11-16T13:11:32.163Z,11.96
2022-11-16T13:14:02.173Z,11.72
2022-11-16T13:16:30.573Z,11.70
2022-11-16T13:18:58.902Z,11.73
2022-11-16T13:21:32.998Z,12.00
2022-11-16T13:24:07.968Z,11.98
2022-11-16T13:26:40.128Z,11.65
2022-11-16T13:29:13.517Z,11.31
2022-11-16T13:31:45.183Z,11.43
2022-11-16T13:34:15.881Z,11.38
2022-11-16T13:36:46.667Z,11.95
2022-11-16T13:39:21.855Z,12.32
2022-11-16T13:41:51.022Z,12.04
2022-11-16T13:44:26.370Z,11.80
2022-11-16T13:46:56.911Z,11.65
2022-11-16T13:49:27.643Z,11.60
2022-11-16T13:52:11.365Z,11.77
2022-11-16T13:54:49.161Z,11.88
2022-11-16T13:57:23.105Z,11.93
2022-11-16T14:00:09.288Z,11.92
2022-11-16T14:02:38.038Z,11.96
2022-11-16T14:05:06.825Z,12.01
2022-11-16T14:07:40.815Z,12.11
2022-11-16T14:10:09.455Z,11.50
2022-11-16T14:12:52.950Z,11.45
2022-11-16T14:15:22.193Z,11.49
2022-11-16T14:17:52.045Z,11.36
2022-11-16T14:20:29.179Z,11.51
2022-11-16T14:23:04.716Z,11.46
2022-11-16T14:25:39.919Z,11.57
2022-11-16T14:28:14.906Z,11.48
2022-11-16T14:30:55.299Z,11.42
2022-11-16T14:33:30.525Z,11.44
2022-11-16T14:35:59.108Z,11.34
2022-11-16T14:38:32.258Z,11.46
2022-11-16T14:41:08.756Z,11.48
2022-11-16T14:43:40.892Z,11.30
2022-11-16T14:46:09.949Z,11.30
2022-11-16T14:48:44.728Z,11.21
2022-11-16T14:51:15.102Z,11.03
2022-11-16T14:53:47.164Z,11.36
2022-11-16T14:56:16.542Z,11.16
2022-11-16T14:58:52.446Z,11.37
2022-11-16T15:01:21.323Z,11.24
2022-11-16T15:03:54.818Z,11.36
2022-11-16T15:06:23.819Z,11.38
2022-11-16T15:08:55.402Z,11.50
2022-11-16T15:11:49.571Z,11.56
2022-11-16T15:14:22.737Z,11.64
2022-11-16T15:16:53.095Z,11.55
2022-11-16T15:19:22.260Z,11.38
2022-11-16T15:21:53.858Z,11.43
2022-11-16T15:24:31.314Z,11.62
2022-11-16T15:27:04.338Z,11.28
2022-11-16T15:29:32.984Z,11.28
2022-11-16T15:32:02.029Z,11.33
2022-11-16T15:34:30.880Z,11.31
2022-11-16T15:36:59.302Z,11.48
2022-11-16T15:39:30.189Z,11.44
2022-11-16T15:42:03.757Z,11.25
2022-11-16T15:44:33.209Z,11.25
2022-11-16T15:47:02.027Z,11.37
2022-11-16T15:49:31.268Z,11.31
2022-11-16T15:52:00.086Z,11.34
2022-11-16T15:54:30.761Z,11.13
2022-11-16T15:57:17.536Z,11.12
2022-11-16T15:59:48.636Z,10.89
2022-11-16T16:02:19.074Z,10.97
2022-11-16T16:04:47.583Z,10.80
2022-11-16T16:07:40.907Z,11.06
2022-11-16T16:10:24.263Z,10.91
2022-11-16T16:12:52.880Z,10.94
2022-11-16T16:15:23.015Z,11.09
2022-11-16T16:17:51.506Z,11.03
2022-11-16T16:20:21.151Z,11.09
2022-11-16T16:22:49.724Z,11.17
2022-11-16T16:25:31.217Z,10.93
2022-11-16T16:28:00.150Z,10.66
2022-11-16T16:30:29.143Z,10.81
2022-11-16T16:32:57.661Z,10.69
2022-11-16T16:35:26.592Z,10.71
2022-11-16T16:37:58.873Z,10.68
2022-11-16T16:40:27.662Z,10.56
2022-11-16T16:42:58.610Z,10.47
2022-11-16T16:45:32.398Z,10.44
2022-11-16T16:48:01.010Z,10.50
2022-11-16T16:50:29.318Z,10.21
2022-11-16T16:52:58.107Z,10.22
2022-11-16T16:55:26.800Z,10.26
2022-11-16T16:57:57.624Z,10.11
2022-11-16T17:00:27.764Z,10.03
2022-11-16T17:02:56.673Z,10.16
2022-11-16T17:05:24.987Z,10.18
2022-11-16T17:07:55.586Z,10.00
2022-11-16T17:10:24.039Z,10.17
2022-11-16T17:12:54.904Z,10.08
2022-11-16T17:15:23.410Z,10.05
2022-11-16T17:17:53.479Z,9.97
2022-11-16T17:20:22.043Z,10.00
2022-11-16T17:22:50.806Z,10.05
2022-11-16T17:25:20.930Z,9.71
2022-11-16T17:27:50.291Z,9.89
2022-11-16T17:30:18.895Z,9.81
2022-11-16T17:32:47.292Z,9.86
2022-11-16T17:35:17.342Z,9.74
2022-11-16T17:37:45.782Z,9.67
2022-11-16T17:40:15.280Z,9.67
2022-11-16T17:42:44.336Z,9.73
2022-11-16T17:45:12.906Z,9.79
2022-11-16T17:47:42.143Z,9.67
2022-11-16T17:50:11.318Z,9.69
2022-11-16T17:52:41.658Z,9.45
2022-11-16T17:55:10.416Z,9.52
2022-11-16T17:57:38.750Z,9.50
2022-11-16T18:00:08.169Z,9.53
2022-11-16T18:02:36.433Z,9.44
2022-11-16T18:05:04.804Z,9.57
2022-11-16T18:07:33.701Z,9.39
2022-11-16T18:10:03.747Z,9.54
2022-11-16T18:12:32.069Z,9.61
2022-11-16T18:15:26.987Z,9.71
2022-11-16T18:17:48.875Z,9.49
2022-11-16T18:20:17.213Z,9.53
2022-11-16T18:22:45.497Z,9.51
2022-11-16T18:25:15.446Z,9.50
2022-11-16T18:27:43.777Z,9.48
2022-11-16T18:30:12.614Z,9.33
2022-11-16T18:32:41.125Z,9.44
2022-11-16T18:35:10.137Z,9.43
2022-11-16T18:37:39.227Z,9.50
2022-11-16T18:40:08.932Z,9.36
2022-11-16T18:42:38.636Z,9.39
2022-11-16T18:45:08.164Z,9.34
2022-11-16T18:47:36.445Z,9.34
2022-11-16T18:50:06.412Z,9.27
2022-11-16T18:52:34.973Z,9.19
2022-11-16T18:55:03.552Z,9.21
2022-11-16T18:57:31.961Z,9.21
2022-11-16T19:00:01.657Z,9.26
2022-11-16T19:02:30.026Z,9.24
2022-11-16T19:04:58.345Z,9.07
2022-11-16T19:07:26.676Z,9.19
2022-11-16T19:09:55.229Z,9.17
2022-11-16T19:12:23.545Z,9.07
2022-11-16T19:14:51.817Z,9.13
2022-11-16T19:17:24.666Z,9.11
2022-11-16T19:19:53.245Z,9.16
2022-11-16T19:22:21.526Z,9.08
2022-11-16T19:24:49.820Z,9.19
2022-11-16T19:27:18.183Z,9.04
2022-11-16T19:29:46.583Z,9.06
2022-11-16T19:32:15.460Z,9.10
2022-11-16T19:34:45.421Z,8.98
2022-11-16T19:37:14.147Z,8.98
2022-11-16T19:39:42.517Z,9.06
2022-11-16T19:42:11.126Z,9.07
2022-11-16T19:44:39.415Z,9.07
2022-11-16T19:47:17.716Z,9.07
2022-11-16T19:49:59.987Z,9.00
2022-11-16T19:53:02.842Z,8.97
2022-11-16T19:55:38.558Z,9.04
2022-11-16T19:58:33.243Z,9.05
2022-11-16T20:01:31.663Z,8.92
2022-11-16T20:04:10.172Z,8.94
2022-11-16T20:06:57.649Z,9.02
2022-11-16T20:10:30.723Z,9.06
2022-11-16T20:13:28.468Z,9.12
2022-11-16T20:15:59.721Z,9.13
2022-11-16T20:18:31.571Z,9.12
2022-11-16T20:21:05.444Z,9.11
2022-11-16T20:23:45.619Z,9.18
2022-11-16T20:26:16.630Z,9.19
2022-11-16T20:28:46.658Z,9.19
2022-11-16T20:31:20.057Z,9.18
2022-11-16T20:33:55.062Z,9.24
2022-11-16T20:36:27.976Z,9.31
2022-11-16T20:39:00.183Z,9.32
2022-11-16T20:41:34.283Z,9.31
2022-11-16T20:44:09.535Z,9.42
2022-11-16T20:47:00.209Z,9.41
2022-11-16T20:49:34.707Z,9.42
2022-11-16T20:52:08.252Z,9.60
2022-11-16T20:54:42.189Z,9.45
2022-11-16T20:57:15.248Z,9.56
2022-11-16T20:59:59.165Z,9.47
2022-11-16T21:02:30.641Z,9.39
2022-11-16T21:05:02.476Z,9.48
2022-11-16T21:07:35.574Z,9.54
2022-11-16T21:10:21.269Z,9.61
2022-11-16T21:13:06.656Z,9.62
2022-11-16T21:15:40.845Z,9.56
2022-11-16T21:18:13.781Z,9.52
2022-11-16T21:20:43.665Z,9.61
2022-11-16T21:23:18.384Z,9.55
2022-11-16T21:25:52.589Z,9.62
2022-11-16T21:28:25.726Z,9.49
2022-11-16T21:31:02.753Z,9.71
2022-11-16T21:33:38.253Z,9.69
2022-11-16T21:36:11.963Z,9.51
2022-11-16T21:38:42.901Z,9.54
2022-11-16T21:41:20.496Z,9.66
2022-11-16T21:43:52.091Z,9.62
2022-11-16T21:46:24.938Z,9.63
2022-11-16T21:49:00.827Z,9.59
2022-11-16T21:51:35.246Z,9.56
2022-11-16T21:54:14.353Z,9.71
2022-11-16T21:56:50.617Z,9.53
2022-11-16T22:02:12.393Z,9.61
2022-11-16T22:04:58.680Z,9.58
2022-11-16T22:07:36.913Z,9.63
2022-11-16T22:10:18.171Z,9.60
2022-11-16T22:12:58.932Z,9.60
2022-11-16T22:15:29.663Z,9.66
2022-11-16T22:18:05.363Z,9.61
2022-11-16T22:20:38.084Z,9.69
2022-11-16T22:23:07.955Z,9.69
2022-11-16T22:25:46.193Z,9.77
2022-11-16T22:28:21.034Z,9.79
2022-11-16T22:31:00.109Z,9.73
2022-11-16T22:33:31.485Z,9.67
2022-11-16T22:36:08.435Z,9.63
2022-11-16T22:38:42.952Z,9.64
2022-11-16T22:41:13.845Z,9.70
2022-11-16T22:43:52.839Z,9.68
2022-11-16T22:46:28.172Z,9.70
2022-11-16T22:49:00.037Z,9.83
2022-11-16T22:51:32.262Z,9.89
2022-11-16T22:54:15.780Z,9.64
2022-11-16T22:57:01.464Z,9.79
2022-11-16T22:59:35.146Z,9.68
2022-11-16T23:02:21.072Z,9.62
2022-11-16T23:04:50.286Z,9.73
2022-11-16T23:07:24.322Z,9.71
2022-11-16T23:09:58.744Z,9.83
2022-11-16T23:12:45.668Z,9.71
2022-11-16T23:15:31.536Z,9.72
2022-11-16T23:18:13.488Z,9.70
2022-11-16T23:21:00.560Z,9.77
2022-11-16T23:23:46.243Z,9.74
2022-11-16T23:26:32.514Z,9.74
2022-11-16T23:29:09.294Z,9.79
2022-11-16T23:31:42.326Z,9.83
2022-11-16T23:34:14.457Z,9.79
2022-11-16T23:36:52.174Z,9.84
2022-11-16T23:39:28.783Z,9.87
2022-11-16T23:42:13.177Z,9.80
2022-11-16T23:44:44.470Z,9.81
2022-11-16T23:47:18.040Z,9.88
2022-11-16T23:49:56.065Z,9.90
2022-11-16T23:52:31.981Z,9.77
2022-11-16T23:55:06.832Z,9.71
2022-11-16T23:57:37.057Z,9.78
